Time;durP1;ratioP1;P1;durP2;ratioP2;P2;SDS_P1;SDS_P2;PMS_P1;PMS_P2;Temp;Humidity;BMP_temperature;BMP_pressure;BME280_temperature;BME280_humidity;BME280_pressure;Samples;Min_cycle;Max_cycle;Signal;HPM_P1;HPM_P2
2021/09/03 00:02:24;;;;;;;5.90;4.50;;;;;;;10.25;80.95;95142.76;1633842;86;21551;-60
2021/09/03 00:04:51;;;;;;;5.87;4.70;;;;;;;10.15;81.37;95141.09;1611143;88;21173;-61
2021/09/03 00:07:17;;;;;;;6.60;4.72;;;;;;;10.09;81.79;95145.55;1585572;89;21650;-62
2021/09/03 00:09:45;;;;;;;6.20;5.15;;;;;;;10.06;82.14;95145.05;1594955;88;21030;-61
2021/09/03 00:12:14;;;;;;;7.08;5.20;;;;;;;10.05;82.28;95145.67;1630172;86;21074;-61
2021/09/03 00:14:40;;;;;;;5.97;4.87;;;;;;;10.05;82.56;95146.26;1603171;87;21062;-60
2021/09/03 00:17:07;;;;;;;7.20;4.67;;;;;;;10.08;82.85;95146.17;1552976;89;21142;-62
2021/09/03 00:19:35;;;;;;;7.87;5.12;;;;;;;10.11;82.84;95150.02;1575817;90;21560;-61
2021/09/03 00:22:03;;;;;;;6.17;5.28;;;;;;;10.14;83.17;95146.42;1565391;90;21054;-60
2021/09/03 00:24:30;;;;;;;6.55;4.40;;;;;;;10.16;83.12;95144.00;1573773;90;21654;-60
2021/09/03 00:26:56;;;;;;;5.78;4.70;;;;;;;10.19;83.11;95147.25;1585432;90;21217;-60
2021/09/03 00:29:23;;;;;;;7.55;4.50;;;;;;;10.21;83.27;95147.59;1552665;90;21166;-61
2021/09/03 00:31:50;;;;;;;7.92;4.53;;;;;;;10.25;83.28;95144.13;1586294;90;21101;-60
2021/09/03 00:34:16;;;;;;;6.47;4.72;;;;;;;10.26;83.13;95151.95;1597558;88;21133;-60
2021/09/03 00:36:45;;;;;;;8.18;5.40;;;;;;;10.28;83.05;95141.29;1567716;89;22052;-60
2021/09/03 00:39:12;;;;;;;4.70;4.30;;;;;;;10.27;82.92;95148.59;1552071;91;21643;-60
2021/09/03 00:41:39;;;;;;;5.05;4.58;;;;;;;10.28;83.06;95148.76;1583564;90;21087;-62
2021/09/03 00:44:06;;;;;;;9.03;5.08;;;;;;;10.36;83.14;95143.24;1564265;90;21028;-61
2021/09/03 00:46:32;;;;;;;7.42;5.45;;;;;;;10.43;83.22;95138.91;1575016;90;21032;-60
2021/09/03 00:48:59;;;;;;;6.85;5.40;;;;;;;10.51;83.06;95141.64;1602525;89;20997;-60
2021/09/03 00:51:25;;;;;;;7.67;5.12;;;;;;;10.53;83.09;95135.84;1595612;89;21097;-60
2021/09/03 00:53:53;;;;;;;9.75;5.12;;;;;;;10.57;82.89;95135.13;1592097;89;21192;-61
2021/09/03 00:56:20;;;;;;;9.43;5.00;;;;;;;10.56;82.87;95134.97;1596538;89;21711;-61
2021/09/03 00:58:46;;;;;;;6.20;4.72;;;;;;;10.55;82.76;95116.92;1595773;88;21094;-60
2021/09/03 01:01:13;;;;;;;5.00;4.50;;;;;;;10.56;82.95;95126.72;1581777;89;21149;-60
2021/09/03 01:03:41;;;;;;;10.00;4.67;;;;;;;10.56;82.94;95123.97;1613861;87;21212;-59
2021/09/03 01:06:08;;;;;;;5.92;4.70;;;;;;;10.59;82.92;95112.70;1650914;86;21146;-60
2021/09/03 01:08:36;;;;;;;8.25;5.03;;;;;;;10.60;82.80;95118.37;1622801;87;21445;-60
2021/09/03 01:11:04;;;;;;;4.62;4.20;;;;;;;10.64;82.83;95129.44;1636448;86;21050;-60
2021/09/03 01:13:32;;;;;;;5.83;5.03;;;;;;;10.69;82.68;95115.13;1607250;87;21537;-60
2021/09/03 01:15:59;;;;;;;6.53;4.90;;;;;;;10.71;82.44;95114.71;1575712;89;20991;-62
2021/09/03 01:18:26;;;;;;;5.72;4.85;;;;;;;10.69;82.32;95107.50;1565705;90;21222;-60
2021/09/03 01:20:52;;;;;;;9.85;5.20;;;;;;;10.63;82.43;95106.48;1551842;91;21138;-61
2021/09/03 01:23:21;;;;;;;5.70;4.85;;;;;;;10.62;82.59;95113.20;1551971;92;21455;-60
2021/09/03 01:25:48;;;;;;;8.00;5.28;;;;;;;10.59;82.36;95105.23;1575388;90;21055;-60
2021/09/03 01:28:15;;;;;;;6.05;4.83;;;;;;;10.59;82.56;95105.83;1599339;89;21214;-61
2021/09/03 01:30:41;;;;;;;8.78;5.22;;;;;;;10.63;82.49;95110.61;1570653;89;21188;-60
2021/09/03 01:33:08;;;;;;;6.72;5.30;;;;;;;10.67;82.36;95104.39;1555076;90;21579;-61
2021/09/03 01:35:34;;;;;;;8.58;5.97;;;;;;;10.62;82.19;95099.44;1559442;90;21094;-60
2021/09/03 01:38:05;;;;;;;7.78;4.95;;;;;;;10.59;82.39;95098.95;1574381;90;21128;-61
2021/09/03 01:40:29;;;;;;;5.65;5.05;;;;;;;10.54;82.56;95090.63;1623116;86;21098;-62
2021/09/03 01:42:56;;;;;;;6.75;5.35;;;;;;;10.54;82.73;95090.63;1603642;87;21174;-60
2021/09/03 01:45:23;;;;;;;7.00;4.87;;;;;;;10.54;82.84;95089.25;1576932;89;21231;-60
2021/09/03 01:47:49;;;;;;;7.67;5.35;;;;;;;10.56;83.13;95092.33;1614122;87;21534;-61
2021/09/03 01:50:18;;;;;;;9.88;5.20;;;;;;;10.60;83.08;95082.60;1603925;89;21088;-61
2021/09/03 01:52:44;;;;;;;10.58;5.03;;;;;;;10.62;83.05;95087.06;1589027;87;21110;-61
2021/09/03 01:55:11;;;;;;;6.33;4.83;;;;;;;10.62;83.19;95087.06;1642197;86;21818;-60
2021/09/03 01:57:37;;;;;;;6.25;4.70;;;;;;;10.68;83.31;95086.70;1609512;87;21058;-61
2021/09/03 02:00:06;;;;;;;9.98;4.72;;;;;;;10.73;83.22;95075.14;1589785;89;21082;-62
2021/09/03 02:02:36;;;;;;;9.05;5.15;;;;;;;10.75;83.06;95081.72;1614344;87;21264;-61
2021/09/03 02:05:04;;;;;;;7.80;4.87;;;;;;;10.73;82.92;95065.67;1644005;86;21026;-60
2021/09/03 02:07:32;;;;;;;6.90;4.60;;;;;;;10.69;82.93;95077.23;1613693;87;21814;-62
2021/09/03 02:10:00;;;;;;;4.97;4.30;;;;;;;10.68;83.09;95068.81;1645887;86;21067;-60
2021/09/03 02:12:26;;;;;;;6.87;5.00;;;;;;;10.73;83.03;95068.26;1615191;87;21007;-60
2021/09/03 02:14:53;;;;;;;4.83;4.33;;;;;;;10.78;83.05;95069.24;1620399;87;20987;-61
2021/09/03 02:17:22;;;;;;;10.32;5.03;;;;;;;10.83;82.94;95075.56;1576421;89;21034;-62
2021/09/03 02:19:48;;;;;;;6.20;5.10;;;;;;;10.88;82.85;95075.03;1576131;89;21156;-61
2021/09/03 02:22:15;;;;;;;6.58;4.60;;;;;;;10.87;82.68;95076.25;1591532;88;20959;-60
2021/09/03 02:24:41;;;;;;;5.87;4.33;;;;;;;10.82;82.64;95065.02;1613450;87;21040;-60
2021/09/03 02:27:08;;;;;;;11.43;4.80;;;;;;;10.77;82.87;95064.95;1638383;86;21045;-60
2021/09/03 02:29:35;;;;;;;8.98;5.35;;;;;;;10.78;82.77;95061.61;1607681;88;21015;-60
2021/09/03 02:32:03;;;;;;;4.92;4.47;;;;;;;10.74;82.83;95058.95;1557077;89;21803;-60
2021/09/03 02:34:31;;;;;;;7.47;5.28;;;;;;;10.70;82.67;95058.89;1610689;87;20972;-61
2021/09/03 02:36:58;;;;;;;8.43;5.10;;;;;;;10.61;82.71;95059.38;1590016;88;21019;-61
2021/09/03 02:39:24;;;;;;;5.05;4.30;;;;;;;10.56;83.21;95057.19;1614236;88;21085;-60
2021/09/03 02:41:51;;;;;;;5.20;4.70;;;;;;;10.58;83.06;95058.89;1649276;86;21585;-62
2021/09/03 02:44:17;;;;;;;5.87;5.12;;;;;;;10.53;82.91;95050.57;1611012;87;21133;-60
2021/09/03 02:46:44;;;;;;;8.98;5.25;;;;;;;10.44;82.97;95051.84;1638255;86;21562;-60
2021/09/03 02:49:11;;;;;;;9.43;5.35;;;;;;;10.34;83.56;95043.91;1612376;86;21122;-61
2021/09/03 02:51:39;;;;;;;10.53;5.30;;;;;;;10.35;83.61;95045.45;1612019;87;21478;-61
2021/09/03 02:54:07;;;;;;;5.58;5.08;;;;;;;10.30;83.22;95044.59;1594319;88;21032;-60
2021/09/03 02:56:34;;;;;;;9.08;4.60;;;;;;;10.22;83.06;95044.06;1607325;87;21184;-60
2021/09/03 02:59:01;;;;;;;10.72;5.15;;;;;;;10.17;83.23;95042.45;1651573;86;21027;-61
2021/09/03 03:01:29;;;;;;;10.60;5.62;;;;;;;10.10;83.37;95039.30;1617344;88;21016;-61
2021/09/03 03:03:57;;;;;;;12.78;5.58;;;;;;;10.10;83.69;95031.05;1587576;89;21550;-59
2021/09/03 03:06:24;;;;;;;10.93;4.62;;;;;;;10.11;83.63;95026.30;1588070;89;21086;-61
2021/09/03 03:08:50;;;;;;;7.22;4.85;;;;;;;10.07;83.63;95032.52;1578516;90;21795;-60
2021/09/03 03:11:18;;;;;;;8.53;5.17;;;;;;;10.02;83.50;95032.44;1587928;89;20989;-61
2021/09/03 03:13:49;;;;;;;10.48;5.50;;;;;;;9.99;83.63;95033.91;1556199;90;21555;-61
2021/09/03 03:16:17;;;;;;;8.25;5.37;;;;;;;9.97;83.72;95036.33;1593788;88;21057;-60
2021/09/03 03:18:44;;;;;;;7.17;5.00;;;;;;;9.95;83.96;95038.13;1589258;89;20996;-61
2021/09/03 03:21:12;;;;;;;7.05;4.72;;;;;;;9.99;84.05;95029.78;1603829;88;21081;-62
2021/09/03 03:23:39;;;;;;;7.15;4.83;;;;;;;10.03;84.11;95034.60;1580164;89;21105;-60
2021/09/03 03:26:06;;;;;;;7.25;4.97;;;;;;;10.10;83.92;95030.27;1603945;88;21251;-60
2021/09/03 03:28:33;;;;;;;6.37;5.28;;;;;;;10.14;83.79;95030.34;1582874;89;21023;-61
2021/09/03 03:30:59;;;;;;;6.45;5.03;;;;;;;10.18;83.65;95028.86;1608616;88;21046;-61
2021/09/03 03:33:26;;;;;;;5.03;4.62;;;;;;;10.18;83.21;95033.75;1591375;89;22061;-60
2021/09/03 03:35:53;;;;;;;5.33;4.60;;;;;;;10.15;83.07;95037.99;1596611;88;21022;-61
2021/09/03 03:38:20;;;;;;;7.22;4.95;;;;;;;10.11;83.14;95040.05;1589258;89;21011;-60
2021/09/03 03:40:48;;;;;;;5.35;4.17;;;;;;;10.12;83.39;95042.97;1609088;88;21057;-61
2021/09/03 03:43:15;;;;;;;6.90;4.90;;;;;;;10.18;83.61;95043.98;1591760;89;21046;-60
2021/09/03 03:45:42;;;;;;;5.40;4.30;;;;;;;10.27;83.56;95040.77;1608222;88;22069;-60
2021/09/03 03:48:09;;;;;;;4.58;4.03;;;;;;;10.34;83.38;95037.03;1586782;89;21046;-60
2021/09/03 03:50:36;;;;;;;6.28;4.42;;;;;;;10.40;82.97;95041.55;1568634;90;21601;-61
2021/09/03 03:53:03;;;;;;;4.65;3.80;;;;;;;10.38;82.88;95032.19;1574820;90;21615;-60
2021/09/03 03:55:29;;;;;;;5.17;4.15;;;;;;;10.37;82.76;95027.91;1577817;89;21121;-61
2021/09/03 03:57:56;;;;;;;6.90;4.53;;;;;;;10.37;82.92;95028.66;1618275;88;21188;-60
2021/09/03 04:00:23;;;;;;;7.50;4.55;;;;;;;10.44;82.92;95029.05;1585988;90;21033;-61
2021/09/03 04:02:49;;;;;;;7.60;4.90;;;;;;;10.49;82.73;95044.41;1570031;90;21183;-60
2021/09/03 04:05:16;;;;;;;6.03;4.58;;;;;;;10.49;82.36;95043.66;1570815;90;21521;-60
2021/09/03 04:07:42;;;;;;;6.03;4.00;;;;;;;10.46;82.47;95037.04;1573776;90;21050;-61
2021/09/03 04:10:10;;;;;;;7.65;4.47;;;;;;;10.45;82.43;95043.75;1584597;89;21492;-61
2021/09/03 04:12:37;;;;;;;7.40;4.47;;;;;;;10.44;82.63;95035.93;1574033;89;21595;-61
2021/09/03 04:15:06;;;;;;;28.67;5.92;;;;;;;10.45;82.72;95037.47;1580196;88;21039;-60
2021/09/03 04:17:35;;;;;;;9.75;5.33;;;;;;;10.46;82.75;95033.50;1576834;90;21610;-60
2021/09/03 04:20:02;;;;;;;11.35;5.40;;;;;;;10.52;82.97;95027.02;1595092;89;21034;-61
2021/09/03 04:22:29;;;;;;;6.85;4.95;;;;;;;10.59;82.76;95020.54;1588001;89;21581;-61
2021/09/03 04:24:55;;;;;;;9.48;4.83;;;;;;;10.65;82.73;95035.27;1577159;89;21018;-60
2021/09/03 04:27:22;;;;;;;8.83;5.65;;;;;;;10.69;82.75;95019.45;1596759;88;21031;-61
2021/09/03 04:29:49;;;;;;;6.10;5.28;;;;;;;10.73;82.86;95025.61;1578728;89;21048;-60
2021/09/03 04:32:15;;;;;;;9.48;5.78;;;;;;;10.77;82.80;95023.67;1614033;88;21082;-61
2021/09/03 04:34:42;;;;;;;6.00;5.00;;;;;;;10.79;82.52;95028.12;1603079;88;21142;-61
2021/09/03 04:37:09;;;;;;;12.13;5.12;;;;;;;10.78;82.45;95026.58;1620351;87;21032;-62
2021/09/03 04:39:35;;;;;;;7.97;5.53;;;;;;;10.80;82.30;95024.16;1591904;88;21657;-61
2021/09/03 04:42:03;;;;;;;9.05;5.08;;;;;;;10.79;82.26;95025.38;1610577;87;21031;-60
2021/09/03 04:44:30;;;;;;;14.90;5.37;;;;;;;10.77;82.01;95031.17;1597441;89;20995;-61
2021/09/03 04:46:58;;;;;;;15.68;5.50;;;;;;;10.74;81.99;95034.19;1643206;86;21403;-63
2021/09/03 04:49:26;;;;;;;7.50;5.00;;;;;;;10.73;81.90;95035.99;1615467;87;38390;-60
2021/09/03 04:51:52;;;;;;;7.10;4.72;;;;;;;10.71;81.83;95026.66;1586210;89;21090;-62
2021/09/03 04:54:20;;;;;;;9.80;5.00;;;;;;;10.71;81.81;95027.41;1611423;87;21082;-61
2021/09/03 04:56:47;;;;;;;10.20;6.22;;;;;;;10.71;81.69;95032.91;1597441;89;21104;-61
2021/09/03 04:59:14;;;;;;;10.23;5.78;;;;;;;10.69;81.83;95033.20;1615212;87;21148;-62
2021/09/03 05:01:41;;;;;;;17.27;7.30;;;;;;;10.64;81.83;95030.98;1643368;86;21699;-61
2021/09/03 05:04:07;;;;;;;14.28;8.78;;;;;;;10.59;82.03;95036.45;1610013;87;21087;-62
2021/09/03 05:06:34;;;;;;;12.68;8.70;;;;;;;10.58;82.36;95036.88;1578636;89;21212;-61
2021/09/03 05:09:02;;;;;;;9.58;6.53;;;;;;;10.62;82.57;95037.53;1606128;88;20982;-61
2021/09/03 05:11:29;;;;;;;7.42;6.40;;;;;;;10.67;82.71;95028.72;1586465;89;21857;-61
2021/09/03 05:13:57;;;;;;;12.25;7.37;;;;;;;10.70;82.88;95028.62;1605191;87;21173;-61
2021/09/03 05:16:24;;;;;;;10.65;5.92;;;;;;;10.79;82.99;95030.87;1628393;86;21010;-61
2021/09/03 05:18:54;;;;;;;13.38;6.55;;;;;;;10.87;82.89;95034.96;1617561;87;21510;-61
2021/09/03 05:21:21;;;;;;;8.25;5.55;;;;;;;10.90;82.33;95023.06;1590356;88;21070;-63
2021/09/03 05:23:49;;;;;;;10.38;5.95;;;;;;;10.93;82.04;95020.80;1615342;87;23011;-62
2021/09/03 05:26:15;;;;;;;14.28;6.47;;;;;;;11.00;82.10;95023.93;1608699;88;21046;-63
2021/09/03 05:28:42;;;;;;;10.15;6.92;;;;;;;11.10;81.76;95033.81;1612440;88;20998;-64
2021/09/03 05:31:09;;;;;;;8.70;6.08;;;;;;;11.17;81.21;95023.33;1634757;86;21163;-62
2021/09/03 05:33:36;;;;;;;9.90;7.95;;;;;;;11.18;80.70;95025.50;1613259;88;20999;-63
2021/09/03 05:36:05;;;;;;;9.58;6.10;;;;;;;11.24;80.40;95021.74;1626036;86;21064;-65
2021/09/03 05:38:32;;;;;;;8.25;5.62;;;;;;;11.34;80.28;95027.48;1575827;88;21009;-61
2021/09/03 05:41:01;;;;;;;11.63;6.25;;;;;;;11.47;79.96;95014.45;1581865;87;21518;-65
2021/09/03 05:43:28;;;;;;;20.55;12.13;;;;;;;11.54;79.80;95013.44;1574637;89;21136;-62
2021/09/03 05:45:55;;;;;;;9.73;5.83;;;;;;;11.64;79.31;95019.98;1614354;85;21090;-65
2021/09/03 05:48:24;;;;;;;7.60;5.80;;;;;;;11.76;78.68;95017.80;1597422;87;22006;-65
2021/09/03 05:50:52;;;;;;;11.35;5.72;;;;;;;11.84;77.83;95010.80;1592120;88;22436;-63
2021/09/03 05:53:19;;;;;;;8.25;5.62;;;;;;;11.90;77.32;95011.75;1612042;86;21537;-61
2021/09/03 05:55:46;;;;;;;10.43;6.08;;;;;;;11.97;76.79;95014.27;1572096;89;21101;-60
2021/09/03 05:58:13;;;;;;;18.00;5.62;;;;;;;12.00;76.24;95013.37;1603953;86;21216;-61
2021/09/03 06:00:39;;;;;;;11.48;5.62;;;;;;;12.04;76.02;95011.88;1585167;88;21147;-63
2021/09/03 06:03:06;;;;;;;16.90;6.30;;;;;;;12.11;75.53;95017.87;1603925;87;21180;-64
2021/09/03 06:05:34;;;;;;;12.15;5.42;;;;;;;12.14;75.21;95002.42;1624110;85;21011;-62
2021/09/03 06:08:01;;;;;;;11.22;5.97;;;;;;;12.18;75.17;95012.11;1585157;87;21085;-65
2021/09/03 06:10:28;;;;;;;16.27;5.85;;;;;;;12.26;75.00;95008.48;1554509;89;21048;-69
2021/09/03 06:12:55;;;;;;;7.70;4.78;;;;;;;12.39;74.89;95005.78;1579811;88;21293;-69
2021/09/03 06:15:22;;;;;;;12.03;6.35;;;;;;;12.51;74.53;95004.94;1591943;87;21192;-58
2021/09/03 06:17:48;;;;;;;8.68;5.50;;;;;;;12.58;73.88;95000.52;1642368;85;21140;-63
2021/09/03 06:20:15;;;;;;;13.15;6.58;;;;;;;12.64;73.46;94995.92;1602368;86;21045;-65
2021/09/03 06:22:43;;;;;;;7.92;4.67;;;;;;;12.72;73.16;95002.09;1615886;85;21172;-63
2021/09/03 06:25:10;;;;;;;8.75;5.12;;;;;;;12.78;72.88;94994.78;1613304;85;21154;-63
2021/09/03 06:27:38;;;;;;;19.80;6.22;;;;;;;12.87;72.36;94995.42;1604711;87;21040;-63
2021/09/03 06:30:06;;;;;;;8.50;4.53;;;;;;;12.95;72.05;95001.61;1598874;88;21147;-65
2021/09/03 06:32:35;;;;;;;13.60;4.83;;;;;;;13.07;71.65;94993.05;1588976;88;21095;-64
2021/09/03 06:35:04;;;;;;;15.13;5.58;;;;;;;13.20;71.67;94989.53;1594386;87;21042;-65
2021/09/03 06:37:31;;;;;;;9.63;5.33;;;;;;;13.35;71.56;94994.63;1562472;89;22791;-67
2021/09/03 06:39:57;;;;;;;15.58;6.22;;;;;;;13.49;71.23;94987.13;1616631;85;21157;-66
2021/09/03 06:42:24;;;;;;;19.85;5.87;;;;;;;13.63;70.97;95001.73;1578622;87;21091;-64
2021/09/03 06:44:51;;;;;;;9.45;4.45;;;;;;;13.73;70.80;95001.27;1574642;88;21031;-64
2021/09/03 06:47:18;;;;;;;19.92;5.53;;;;;;;13.83;69.77;94995.88;1582398;87;21212;-58
2021/09/03 06:49:45;;;;;;;10.35;4.95;;;;;;;13.90;69.44;94986.50;1549689;89;21195;-70
2021/09/03 06:52:12;;;;;;;11.30;5.22;;;;;;;13.99;69.01;94990.66;1585403;87;21211;-65
2021/09/03 06:54:39;;;;;;;27.67;6.30;;;;;;;14.08;68.63;94992.02;1573809;89;21130;-65
2021/09/03 06:57:07;;;;;;;8.08;4.95;;;;;;;14.18;68.15;94999.11;1616700;85;21139;-62
2021/09/03 06:59:34;;;;;;;13.65;5.03;;;;;;;14.28;68.13;94993.69;1632855;85;21110;-62
2021/09/03 07:02:00;;;;;;;7.28;4.35;;;;;;;14.40;67.40;94995.52;1590771;86;21188;-63
2021/09/03 07:04:28;;;;;;;8.55;4.17;;;;;;;14.50;65.48;94990.27;1617592;85;21084;-67
2021/09/03 07:06:56;;;;;;;17.85;4.80;;;;;;;14.63;64.36;94990.83;1568366;88;21061;-63
2021/09/03 07:09:23;;;;;;;6.25;4.70;;;;;;;14.73;64.05;94990.95;1573496;88;21116;-64
2021/09/03 07:11:51;;;;;;;22.98;4.70;;;;;;;14.83;62.91;94984.13;1591902;87;21160;-62
2021/09/03 07:14:19;;;;;;;6.08;4.12;;;;;;;14.93;61.33;94978.70;1616543;84;21850;-64
2021/09/03 07:16:47;;;;;;;12.90;4.72;;;;;;;15.05;59.72;94984.66;1597542;86;21109;-62
2021/09/03 07:19:14;;;;;;;6.95;4.58;;;;;;;15.15;57.42;94980.58;1597028;87;21166;-64
2021/09/03 07:21:42;;;;;;;6.95;4.67;;;;;;;15.27;56.69;94986.53;1581829;89;21190;-61
2021/09/03 07:24:09;;;;;;;8.80;3.95;;;;;;;15.39;56.79;94979.99;1583286;88;21604;-64
2021/09/03 07:26:38;;;;;;;12.23;4.33;;;;;;;15.50;56.06;94980.84;1619146;87;21091;-64
2021/09/03 07:29:05;;;;;;;11.40;4.10;;;;;;;15.58;53.86;94980.65;1586868;88;21191;-65
2021/09/03 07:31:34;;;;;;;6.42;3.85;;;;;;;15.68;53.54;94980.71;1561064;89;21884;-65
2021/09/03 07:34:03;;;;;;;8.28;5.47;;;;;;;15.77;52.69;94971.70;1579178;87;21097;-62
2021/09/03 07:36:30;;;;;;;5.83;4.08;;;;;;;15.90;51.94;94966.66;1574668;89;21059;-63
2021/09/03 07:38:57;;;;;;;4.80;3.22;;;;;;;16.01;52.42;94975.81;1570014;89;21171;-66
2021/09/03 07:41:43;;;;;;;34.58;7.78;;;;;;;16.09;50.98;94976.99;1555285;90;21080;-69
2021/09/03 07:44:15;;;;;;;12.98;3.60;;;;;;;16.15;51.00;94970.30;1557312;89;21074;-65
2021/09/03 07:46:43;;;;;;;10.93;3.50;;;;;;;16.24;50.75;94971.59;1573723;86;21102;-65
2021/09/03 07:49:11;;;;;;;7.40;3.92;;;;;;;16.30;50.16;94962.73;1575044;89;21893;-64
2021/09/03 07:51:37;;;;;;;7.28;3.20;;;;;;;16.37;50.75;94969.33;1612748;86;21146;-64
2021/09/03 07:54:04;;;;;;;8.60;3.80;;;;;;;16.44;50.69;94968.94;1618376;87;21111;-64
2021/09/03 07:56:31;;;;;;;4.58;3.00;;;;;;;16.53;49.67;94966.83;1592361;87;21519;-64
2021/09/03 07:58:58;;;;;;;6.08;3.50;;;;;;;16.56;49.31;94965.11;1583810;88;21148;-60
2021/09/03 08:01:26;;;;;;;8.70;3.35;;;;;;;16.59;49.97;94971.09;1578618;89;21136;-62
2021/09/03 08:03:53;;;;;;;18.15;3.70;;;;;;;16.63;48.37;94970.27;1583952;87;21191;-63
2021/09/03 08:06:20;;;;;;;8.05;3.40;;;;;;;16.67;48.79;94968.05;1593453;87;21469;-63
2021/09/03 08:08:48;;;;;;;10.23;4.42;;;;;;;16.73;47.29;94970.31;1605670;86;21046;-67
2021/09/03 08:11:17;;;;;;;3.35;3.00;;;;;;;16.78;47.89;94969.63;1624234;86;21077;-64
2021/09/03 08:13:45;;;;;;;15.43;3.90;;;;;;;16.83;46.37;94962.00;1590638;88;21070;-63
2021/09/03 08:16:12;;;;;;;5.78;3.20;;;;;;;16.87;47.87;94968.14;1582936;88;21191;-63
2021/09/03 08:18:40;;;;;;;6.92;3.45;;;;;;;16.92;47.97;94962.65;1570825;89;21171;-62
2021/09/03 08:21:09;;;;;;;4.22;3.27;;;;;;;17.02;48.05;94961.91;1591049;87;21133;-68
2021/09/03 08:23:36;;;;;;;4.70;3.55;;;;;;;17.13;47.44;94969.78;1640309;85;21109;-66
2021/09/03 08:26:03;;;;;;;4.67;3.20;;;;;;;17.24;45.77;94961.61;1592347;87;21627;-67
2021/09/03 08:28:30;;;;;;;8.30;3.20;;;;;;;17.32;46.62;94967.53;1580488;88;21180;-60
2021/09/03 08:30:57;;;;;;;12.03;3.98;;;;;;;17.39;44.07;94961.58;1607585;87;22023;-61
2021/09/03 08:33:24;;;;;;;6.53;2.90;;;;;;;17.43;45.17;94957.98;1568403;89;21228;-66
2021/09/03 08:35:50;;;;;;;29.95;4.80;;;;;;;17.50;44.64;94954.78;1572121;88;21189;-61
2021/09/03 08:38:17;;;;;;;6.25;2.77;;;;;;;17.58;44.22;94948.92;1586484;87;21544;-64
2021/09/03 08:40:44;;;;;;;10.00;2.70;;;;;;;17.66;45.03;94952.83;1583736;88;21837;-64
2021/09/03 08:43:11;;;;;;;4.45;2.70;;;;;;;17.75;45.28;94944.33;1576311;89;21108;-64
2021/09/03 08:45:40;;;;;;;4.80;3.02;;;;;;;17.77;44.17;94932.08;1571351;89;21109;-64
2021/09/03 08:48:08;;;;;;;2.58;2.33;;;;;;;17.80;44.48;94929.73;1554109;91;21136;-67
2021/09/03 08:50:35;;;;;;;4.75;2.87;;;;;;;17.88;45.92;94925.25;1556982;89;21086;-64
2021/09/03 08:53:02;;;;;;;3.80;2.50;;;;;;;18.02;45.49;94929.97;1586265;87;21131;-61
2021/09/03 08:55:28;;;;;;;3.70;2.52;;;;;;;18.13;43.72;94925.27;1606371;86;21185;-62
2021/09/03 08:57:55;;;;;;;7.05;2.85;;;;;;;18.19;43.96;94918.50;1594443;87;21195;-63
2021/09/03 09:00:25;;;;;;;33.02;4.65;;;;;;;18.23;45.10;94919.04;1588677;88;21172;-65
2021/09/03 09:03:03;;;;;;;10.23;3.72;;;;;;;18.31;45.08;94920.79;1636570;86;21140;-62
2021/09/03 09:05:59;;;;;;;5.62;2.85;;;;;;;18.43;45.30;94920.39;1586371;89;21570;-62
2021/09/03 09:08:28;;;;;;;3.20;2.30;;;;;;;18.58;44.04;94924.44;1618459;88;21125;-65
2021/09/03 09:11:02;;;;;;;3.67;2.55;;;;;;;18.66;42.11;94911.59;1603850;85;21101;-63
2021/09/03 09:13:40;;;;;;;3.77;2.30;;;;;;;18.73;43.21;94911.13;1585811;87;21180;-62
2021/09/03 09:16:17;;;;;;;3.30;2.50;;;;;;;18.80;43.27;94917.02;1617705;86;21135;-64
2021/09/03 09:18:53;;;;;;;3.92;2.60;;;;;;;18.85;41.85;94903.73;1606000;85;21185;-65
2021/09/03 09:21:36;;;;;;;3.80;2.42;;;;;;;18.90;40.68;94910.62;1599075;87;21093;-67
2021/09/03 09:24:13;;;;;;;15.10;3.62;;;;;;;18.91;40.52;94914.31;1585871;88;21143;-61
2021/09/03 09:26:49;;;;;;;4.85;2.30;;;;;;;18.96;42.19;94910.80;1593425;88;21567;-67
2021/09/03 09:29:22;;;;;;;4.80;2.42;;;;;;;19.04;39.86;94896.51;1582862;88;21137;-67
2021/09/03 09:31:52;;;;;;;4.65;2.87;;;;;;;19.03;39.85;94893.59;1565440;89;21178;-68
2021/09/03 09:34:28;;;;;;;4.95;2.25;;;;;;;19.09;40.98;94883.86;1586396;89;21187;-69
2021/09/03 09:36:57;;;;;;;7.80;3.17;;;;;;;19.23;39.73;94888.54;1574546;87;21106;-70
2021/09/03 09:39:27;;;;;;;11.53;2.50;;;;;;;19.41;40.20;94880.50;1621043;85;21129;-64
2021/09/03 09:42:03;;;;;;;14.65;9.73;;;;;;;19.63;39.94;94879.22;1624725;85;21035;-68
2021/09/03 09:44:34;;;;;;;16.07;4.08;;;;;;;19.86;39.66;94888.41;1630816;86;22358;-63
2021/09/03 09:47:05;;;;;;;5.65;3.42;;;;;;;20.03;39.62;94887.22;1600024;87;21610;-64
2021/09/03 09:49:32;;;;;;;2.98;1.92;;;;;;;20.24;37.68;94885.11;1607971;87;21092;-63
2021/09/03 09:52:00;;;;;;;23.92;4.30;;;;;;;20.48;37.76;94870.00;1597242;87;21070;-63
2021/09/03 09:54:27;;;;;;;6.28;2.72;;;;;;;20.67;37.47;94880.80;1598301;87;21134;-67
2021/09/03 09:57:00;;;;;;;3.55;2.10;;;;;;;20.81;37.70;94867.81;1574858;89;21211;-64
2021/09/03 09:59:30;;;;;;;3.42;2.12;;;;;;;20.94;36.57;94859.69;1603626;87;21144;-63
2021/09/03 10:02:00;;;;;;;7.47;2.50;;;;;;;21.08;37.37;94860.80;1594177;88;21102;-64
2021/09/03 10:04:30;;;;;;;12.18;2.60;;;;;;;21.31;37.07;94860.11;1597330;87;21116;-62
2021/09/03 10:07:01;;;;;;;3.00;2.08;;;;;;;21.61;36.61;94857.56;1598987;88;22308;-61
2021/09/03 10:09:32;;;;;;;2.87;2.52;;;;;;;21.95;35.85;94860.36;1612890;87;21161;-61
2021/09/03 10:12:00;;;;;;;7.20;2.12;;;;;;;22.24;35.04;94853.41;1610827;86;21055;-65
2021/09/03 10:14:30;;;;;;;2.47;1.87;;;;;;;22.46;34.79;94860.94;1613043;87;21178;-64
2021/09/03 10:17:01;;;;;;;8.55;3.50;;;;;;;22.81;34.42;94858.10;1640473;86;21000;-65
2021/09/03 10:19:37;;;;;;;3.85;2.58;;;;;;;23.21;34.08;94855.16;1601714;87;21058;-67
2021/09/03 10:22:13;;;;;;;4.10;2.00;;;;;;;23.66;34.54;94845.58;1613883;86;21986;-66
2021/09/03 10:24:45;;;;;;;2.62;1.90;;;;;;;24.16;34.04;94833.80;1610070;87;21072;-68
2021/09/03 10:27:14;;;;;;;2.20;1.80;;;;;;;24.60;31.91;94844.41;1555130;88;21098;-71
2021/09/03 10:29:46;;;;;;;3.92;1.77;;;;;;;24.96;31.23;94838.55;1605145;87;21102;-70
2021/09/03 10:32:21;;;;;;;4.60;1.90;;;;;;;25.23;29.80;94835.27;1586877;88;21093;-71
2021/09/03 10:35:18;;;;;;;2.12;1.70;;;;;;;25.37;30.02;94837.42;1614619;86;21793;-70
2021/09/03 10:37:45;;;;;;;6.40;2.02;;;;;;;25.56;30.32;94845.89;1578891;88;21110;-67
2021/09/03 10:40:24;;;;;;;9.33;3.20;;;;;;;25.91;29.72;94843.27;1599600;88;21078;-68
2021/09/03 10:42:56;;;;;;;9.18;2.80;;;;;;;25.96;29.70;94846.72;1624326;87;21125;-65
2021/09/03 10:45:35;;;;;;;8.75;3.00;;;;;;;26.02;29.29;94838.15;1557516;90;21090;-66
2021/09/03 10:48:13;;;;;;;5.83;4.05;;;;;;;26.20;29.51;94838.64;1617990;87;21226;-64
2021/09/03 10:50:59;;;;;;;7.33;4.70;;;;;;;26.56;30.32;94840.41;1604520;88;21142;-66
2021/09/03 10:53:30;;;;;;;7.35;2.98;;;;;;;26.99;28.99;94825.07;1579825;89;21088;-65
2021/09/03 10:56:13;;;;;;;17.20;10.18;;;;;;;27.25;29.95;94829.83;1615099;87;21124;-65
2021/09/03 10:59:05;;;;;;;5.80;3.80;;;;;;;27.62;29.64;94828.64;1621953;86;21537;-65
2021/09/03 11:01:37;;;;;;;4.28;3.70;;;;;;;28.03;28.43;94827.11;1649056;86;21206;-68
2021/09/03 11:04:15;;;;;;;2.63;2.10;;;;;;;28.36;27.29;94827.55;1598643;87;21462;-61
2021/09/03 11:06:57;;;;;;;2.40;1.50;;;;;;;28.60;26.95;94821.36;1676449;85;21031;-61
2021/09/03 11:09:29;;;;;;;14.25;2.27;;;;;;;28.52;27.21;94817.09;1640929;87;21130;-67
2021/09/03 11:12:02;;;;;;;11.18;3.85;;;;;;;28.55;27.02;94818.06;1673991;85;21018;-65
2021/09/03 11:14:30;;;;;;;12.07;6.70;;;;;;;28.32;27.66;94809.50;1632535;86;21081;-61
2021/09/03 11:17:05;;;;;;;18.45;9.30;;;;;;;28.24;27.99;94810.09;1664984;85;21514;-69
2021/09/03 11:19:50;;;;;;;4.90;3.67;;;;;;;28.57;28.78;94814.00;1593170;86;21043;-68
2021/09/03 11:22:20;;;;;;;4.72;2.45;;;;;;;28.99;27.20;94810.27;1545288;90;21153;-70
2021/09/03 11:25:03;;;;;;;12.10;10.90;;;;;;;29.32;26.71;94816.22;1622763;86;21066;-65
2021/09/03 11:27:27;;;;;;;83.35;58.90;;;;;;;29.64;26.07;94811.41;1594965;87;21175;-66
2021/09/03 11:29:57;;;;;;;19.42;14.35;;;;;;;29.83;26.64;94814.56;1634727;86;21018;-73
2021/09/03 11:32:34;;;;;;;7.37;5.25;;;;;;;30.03;26.06;94817.16;1589434;88;21092;-66
2021/09/03 11:35:14;;;;;;;4.85;4.15;;;;;;;30.35;25.39;94809.44;1568189;88;21650;-65
2021/09/03 11:37:49;;;;;;;6.37;3.83;;;;;;;30.61;25.27;94813.22;1583108;87;21028;-68
2021/09/03 11:40:31;;;;;;;3.67;2.60;;;;;;;30.76;25.20;94807.44;1629988;87;21167;-67